createdAt,value
2023-04-26T00:00:30.501Z,22.71
2023-04-26T00:03:24.869Z,22.71
2023-04-26T00:05:51.870Z,22.71
2023-04-26T00:08:22.052Z,22.71
2023-04-26T00:10:48.620Z,22.71
2023-04-26T00:13:15.322Z,22.71
2023-04-26T00:15:41.925Z,22.69
2023-04-26T00:18:08.603Z,22.71
2023-04-26T00:20:35.248Z,22.71
2023-04-26T00:23:02.959Z,22.69
2023-04-26T00:25:29.631Z,22.69
2023-04-26T00:27:56.287Z,22.70
2023-04-26T00:30:22.978Z,22.70
2023-04-26T00:32:49.688Z,22.70
2023-04-26T00:35:16.469Z,22.69
2023-04-26T00:37:43.698Z,22.64
2023-04-26T00:40:11.015Z,22.70
2023-04-26T00:42:39.005Z,22.70
2023-04-26T00:45:07.322Z,22.70
2023-04-26T00:47:34.167Z,22.66
2023-04-26T00:50:01.749Z,22.70
2023-04-26T00:52:28.747Z,22.70
2023-04-26T00:54:56.365Z,22.70
2023-04-26T00:57:23.305Z,22.70
2023-04-26T00:59:49.942Z,22.70
2023-04-26T01:02:17.651Z,22.69
2023-04-26T01:04:45.593Z,22.71
2023-04-26T01:07:12.238Z,22.70
2023-04-26T01:09:39.541Z,22.70
2023-04-26T01:12:07.658Z,22.70
2023-04-26T01:14:36.658Z,22.68
2023-04-26T01:17:03.736Z,22.70
2023-04-26T01:19:30.371Z,22.64
2023-04-26T01:21:56.976Z,22.64
2023-04-26T01:24:23.926Z,22.67
2023-04-26T01:26:50.766Z,22.66
2023-04-26T01:29:18.607Z,22.66
2023-04-26T01:31:46.608Z,22.67
2023-04-26T01:34:13.851Z,22.63
2023-04-26T01:36:40.666Z,22.67
2023-04-26T01:39:09.116Z,22.67
2023-04-26T01:41:35.824Z,22.67
2023-04-26T01:44:02.626Z,22.59
2023-04-26T01:46:29.330Z,22.65
2023-04-26T01:48:57.284Z,22.67
2023-04-26T01:51:23.926Z,22.62
2023-04-26T01:53:50.599Z,22.65
2023-04-26T01:56:18.209Z,22.60
2023-04-26T01:58:45.097Z,22.65
2023-04-26T02:01:12.228Z,22.66
2023-04-26T02:03:39.102Z,22.65
2023-04-26T02:06:05.923Z,22.65
2023-04-26T02:08:32.617Z,22.65
2023-04-26T02:10:59.415Z,22.63
2023-04-26T02:13:26.917Z,22.64
2023-04-26T02:15:54.721Z,22.58
2023-04-26T02:18:21.990Z,22.64
2023-04-26T02:20:50.230Z,22.64
2023-04-26T02:23:16.910Z,22.64
2023-04-26T02:25:46.114Z,22.62
2023-04-26T02:28:12.784Z,22.63
2023-04-26T02:30:39.327Z,22.62
2023-04-26T02:33:06.018Z,22.63
2023-04-26T02:35:32.824Z,22.62
2023-04-26T02:37:59.436Z,22.62
2023-04-26T02:40:26.085Z,22.63
2023-04-26T02:42:52.755Z,22.60
2023-04-26T02:45:19.344Z,22.62
2023-04-26T02:47:45.961Z,22.62
2023-04-26T02:50:12.870Z,22.60
2023-04-26T02:52:39.845Z,22.58
2023-04-26T02:55:07.013Z,22.59
2023-04-26T02:57:33.796Z,22.58
2023-04-26T03:00:01.179Z,22.58
2023-04-26T03:02:28.308Z,22.59
2023-04-26T03:04:56.832Z,22.63
2023-04-26T03:07:23.523Z,22.68
2023-04-26T03:09:50.120Z,22.70
2023-04-26T03:12:17.243Z,22.78
2023-04-26T03:14:44.553Z,22.83
2023-04-26T03:17:11.234Z,22.87
2023-04-26T03:19:37.895Z,22.91
2023-04-26T03:22:05.896Z,22.96
2023-04-26T03:24:32.957Z,22.95
2023-04-26T03:27:00.108Z,23.03
2023-04-26T03:29:27.058Z,23.01
2023-04-26T03:31:53.896Z,23.14
2023-04-26T03:34:20.830Z,23.18
2023-04-26T03:36:47.498Z,23.24
2023-04-26T03:39:14.255Z,23.26
2023-04-26T03:41:41.273Z,23.30
2023-04-26T03:44:11.796Z,23.37
2023-04-26T03:46:39.334Z,23.40
2023-04-26T03:49:06.098Z,23.40
2023-04-26T03:51:32.832Z,23.52
2023-04-26T03:53:59.690Z,23.56
2023-04-26T03:56:26.657Z,23.60
2023-04-26T03:58:53.976Z,23.67
2023-04-26T04:01:21.033Z,23.72
2023-04-26T04:03:47.920Z,23.72
2023-04-26T04:06:16.748Z,23.80
2023-04-26T04:08:43.376Z,23.85
2023-04-26T04:11:10.232Z,23.90
2023-04-26T04:13:38.443Z,23.95
2023-04-26T04:16:05.468Z,24.00
2023-04-26T04:18:32.077Z,24.01
2023-04-26T04:20:59.103Z,24.09
2023-04-26T04:23:26.033Z,24.13
2023-04-26T04:25:52.860Z,24.17
2023-04-26T04:28:19.623Z,24.21
2023-04-26T04:30:47.235Z,24.26
2023-04-26T04:33:13.889Z,24.31
2023-04-26T04:35:43.470Z,24.35
2023-04-26T04:38:10.117Z,24.39
2023-04-26T04:40:37.255Z,24.40
2023-04-26T04:43:03.944Z,24.47
2023-04-26T04:45:31.918Z,24.51
2023-04-26T04:47:59.929Z,24.54
2023-04-26T04:50:27.115Z,24.59
2023-04-26T04:52:55.291Z,24.63
2023-04-26T04:55:22.048Z,24.67
2023-04-26T04:57:48.644Z,24.75
2023-04-26T05:00:15.968Z,24.83
2023-04-26T05:03:11.246Z,24.88
2023-04-26T05:05:38.002Z,24.93
2023-04-26T05:08:07.536Z,24.94
2023-04-26T05:10:35.081Z,24.98
2023-04-26T05:13:02.468Z,25.03
2023-04-26T05:15:29.667Z,25.08
2023-04-26T05:17:56.389Z,25.10
2023-04-26T05:20:24.235Z,25.13
2023-04-26T05:22:51.012Z,25.15
2023-04-26T05:25:18.270Z,25.18
2023-04-26T05:27:48.380Z,25.22
2023-04-26T05:30:35.305Z,25.26
2023-04-26T05:33:40.280Z,25.30
2023-04-26T05:36:19.503Z,25.33
2023-04-26T05:38:46.087Z,25.36
2023-04-26T05:41:12.641Z,25.39
2023-04-26T05:43:39.326Z,25.42
2023-04-26T05:46:06.651Z,25.44
2023-04-26T05:48:33.263Z,25.48
2023-04-26T05:50:59.902Z,25.51
2023-04-26T05:53:26.552Z,25.54
2023-04-26T05:55:53.163Z,25.56
2023-04-26T05:58:20.712Z,25.59
2023-04-26T06:00:47.759Z,25.62
2023-04-26T06:03:14.717Z,25.65
2023-04-26T06:05:42.360Z,25.60
2023-04-26T06:08:09.421Z,25.71
2023-04-26T06:10:36.460Z,25.76
2023-04-26T06:13:04.277Z,25.79
2023-04-26T06:15:34.042Z,25.81
2023-04-26T06:18:00.897Z,25.85
2023-04-26T06:20:27.896Z,25.88
2023-04-26T06:22:54.548Z,25.91
2023-04-26T06:25:21.174Z,25.90
2023-04-26T06:27:47.888Z,25.96
2023-04-26T06:30:14.647Z,26.00
2023-04-26T06:32:44.445Z,26.03
2023-04-26T06:35:11.174Z,26.03
2023-04-26T06:37:39.190Z,26.00
2023-04-26T06:40:07.727Z,26.06
2023-04-26T06:42:34.411Z,26.09
2023-04-26T06:45:20.900Z,26.12
2023-04-26T06:47:47.554Z,26.15
2023-04-26T06:50:14.580Z,26.20
2023-04-26T06:52:41.278Z,26.23
2023-04-26T06:55:08.772Z,26.25
2023-04-26T06:57:35.510Z,26.26
2023-04-26T07:00:02.118Z,26.30
2023-04-26T07:02:28.928Z,26.34
2023-04-26T07:04:56.039Z,26.36
2023-04-26T07:07:23.132Z,26.36
2023-04-26T07:09:49.704Z,26.42
2023-04-26T07:12:16.381Z,26.45
2023-04-26T07:14:43.467Z,26.48
2023-04-26T07:17:10.793Z,26.50
2023-04-26T07:19:37.424Z,26.52
2023-04-26T07:22:04.734Z,26.55
2023-04-26T07:24:31.459Z,26.56
2023-04-26T07:26:58.105Z,26.59
2023-04-26T07:29:24.765Z,26.62
2023-04-26T07:31:51.400Z,26.65
2023-04-26T07:34:18.004Z,26.69
2023-04-26T07:36:44.611Z,26.72
2023-04-26T07:39:11.834Z,26.74
2023-04-26T07:41:38.428Z,26.76
2023-04-26T07:44:05.348Z,26.78
2023-04-26T07:46:34.214Z,26.82
2023-04-26T07:49:00.783Z,26.85
2023-04-26T07:51:27.513Z,26.88
2023-04-26T07:53:55.765Z,26.89
2023-04-26T07:56:24.118Z,26.90
2023-04-26T07:58:50.799Z,26.90
2023-04-26T08:01:17.458Z,26.90
2023-04-26T08:03:44.182Z,26.90
2023-04-26T08:06:11.449Z,26.90
2023-04-26T08:08:44.387Z,26.92
2023-04-26T08:11:11.632Z,26.94
2023-04-26T08:13:38.288Z,26.96
2023-04-26T08:16:05.695Z,26.99
2023-04-26T08:18:32.284Z,27.01
2023-04-26T08:20:58.890Z,27.04
2023-04-26T08:23:25.456Z,26.99
2023-04-26T08:25:52.089Z,27.09
2023-04-26T08:28:18.674Z,27.12
2023-04-26T08:30:45.366Z,27.15
2023-04-26T08:33:12.147Z,27.18
2023-04-26T08:35:38.789Z,27.19
2023-04-26T08:38:05.407Z,27.23
2023-04-26T08:40:32.897Z,27.26
2023-04-26T08:42:59.428Z,27.28
2023-04-26T08:45:26.093Z,27.30
2023-04-26T08:48:14.940Z,27.34
2023-04-26T08:50:44.286Z,27.37
2023-04-26T08:53:14.578Z,27.39
2023-04-26T08:55:41.590Z,27.42
2023-04-26T08:58:08.612Z,27.45
2023-04-26T09:00:35.932Z,27.47
2023-04-26T09:03:02.736Z,27.50
2023-04-26T09:05:29.498Z,27.49
2023-04-26T09:08:02.136Z,27.55
2023-04-26T09:10:29.847Z,27.57
2023-04-26T09:12:56.491Z,27.59
2023-04-26T09:15:23.955Z,27.62
2023-04-26T09:17:51.653Z,27.62
2023-04-26T09:20:27.492Z,27.64
2023-04-26T09:23:07.180Z,27.64
2023-04-26T09:25:34.222Z,27.65
2023-04-26T09:28:02.210Z,27.66
2023-04-26T09:30:29.408Z,27.65
2023-04-26T09:33:04.738Z,27.62
2023-04-26T09:35:32.189Z,27.64
2023-04-26T09:38:08.645Z,27.64
2023-04-26T09:40:41.104Z,27.65
2023-04-26T09:43:12.995Z,27.64
2023-04-26T09:45:56.862Z,27.63
2023-04-26T09:48:30.804Z,27.60
2023-04-26T09:51:11.193Z,27.60
2023-04-26T09:53:41.205Z,27.60
2023-04-26T09:56:12.219Z,27.60
2023-04-26T09:58:40.933Z,27.58
2023-04-26T10:01:08.453Z,27.56
2023-04-26T10:03:36.106Z,27.53
2023-04-26T10:06:04.086Z,27.53
2023-04-26T10:08:34.546Z,27.51
2023-04-26T10:11:04.316Z,27.49
2023-04-26T10:13:34.563Z,27.43
2023-04-26T10:16:02.296Z,27.39
2023-04-26T10:18:30.534Z,27.34
2023-04-26T10:21:00.054Z,27.24
2023-04-26T10:23:27.212Z,27.01
2023-04-26T10:25:54.509Z,26.78
2023-04-26T10:28:44.139Z,26.52
2023-04-26T10:31:10.961Z,26.33
2023-04-26T10:33:37.709Z,26.16
2023-04-26T10:36:12.662Z,26.05
2023-04-26T10:38:43.168Z,25.95
2023-04-26T10:41:32.812Z,25.85
2023-04-26T10:44:01.676Z,25.77
2023-04-26T10:46:39.649Z,25.67
2023-04-26T10:49:14.228Z,25.60
2023-04-26T10:51:40.802Z,25.53
2023-04-26T10:54:07.383Z,25.50
2023-04-26T10:56:50.945Z,25.43
2023-04-26T10:59:36.135Z,25.37
2023-04-26T11:02:11.066Z,25.32
2023-04-26T11:04:53.231Z,25.27
2023-04-26T11:07:39.009Z,25.23
2023-04-26T11:10:10.702Z,25.20
2023-04-26T11:12:37.382Z,25.17
2023-04-26T11:15:04.250Z,25.12
2023-04-26T11:17:37.872Z,25.08
2023-04-26T11:20:09.352Z,25.08
2023-04-26T11:22:39.954Z,25.06
2023-04-26T11:25:06.855Z,25.01
2023-04-26T11:27:33.536Z,25.00
2023-04-26T11:30:04.328Z,24.98
2023-04-26T11:32:30.956Z,24.96
2023-04-26T11:35:00.898Z,24.93
2023-04-26T11:37:27.447Z,24.93
2023-04-26T11:39:54.027Z,24.92
2023-04-26T11:42:25.514Z,24.91
2023-04-26T11:44:54.177Z,24.86
2023-04-26T11:47:21.834Z,24.85
2023-04-26T11:49:48.528Z,24.83
2023-04-26T11:52:15.375Z,24.82
2023-04-26T11:54:44.097Z,24.79
2023-04-26T11:57:17.325Z,24.79
2023-04-26T11:59:44.843Z,24.77
2023-04-26T12:02:11.882Z,24.74
2023-04-26T12:04:41.897Z,24.74
2023-04-26T12:07:09.330Z,24.74
2023-04-26T12:09:40.933Z,24.74
2023-04-26T12:12:07.711Z,24.72
2023-04-26T12:14:35.481Z,24.56
2023-04-26T12:17:03.607Z,24.70
2023-04-26T12:19:34.427Z,24.67
2023-04-26T12:22:01.126Z,24.65
2023-04-26T12:24:38.782Z,24.63
2023-04-26T12:27:09.325Z,24.61
2023-04-26T12:29:35.976Z,24.61
2023-04-26T12:32:03.200Z,24.59
2023-04-26T12:34:30.027Z,24.58
2023-04-26T12:36:56.678Z,24.57
2023-04-26T12:39:23.348Z,24.55
2023-04-26T12:41:49.903Z,24.55
2023-04-26T12:44:17.050Z,24.53
2023-04-26T12:46:44.412Z,24.52
2023-04-26T12:49:11.543Z,24.51
2023-04-26T12:51:38.597Z,24.50
2023-04-26T12:54:05.334Z,24.50
2023-04-26T12:56:31.889Z,24.50
2023-04-26T12:58:58.545Z,24.49
2023-04-26T13:01:25.236Z,24.47
2023-04-26T13:03:52.364Z,24.47
2023-04-26T13:06:19.084Z,24.46
2023-04-26T13:08:45.689Z,24.45
2023-04-26T13:11:12.200Z,24.40
2023-04-26T13:13:43.791Z,24.42
2023-04-26T13:16:12.550Z,24.40
2023-04-26T13:18:39.445Z,24.40
2023-04-26T13:21:06.104Z,24.40
2023-04-26T13:23:32.710Z,24.39
2023-04-26T13:25:59.294Z,24.39
2023-04-26T13:28:25.884Z,24.38
2023-04-26T13:30:52.846Z,24.37
2023-04-26T13:33:21.026Z,24.35
2023-04-26T13:35:47.838Z,24.35
2023-04-26T13:38:14.573Z,24.34
2023-04-26T13:40:41.328Z,24.34
2023-04-26T13:43:07.901Z,24.32
2023-04-26T13:45:36.795Z,24.33
2023-04-26T13:48:03.872Z,24.31
2023-04-26T13:50:31.072Z,24.29
2023-04-26T13:52:57.826Z,24.27
2023-04-26T13:55:25.577Z,24.27
2023-04-26T13:57:52.117Z,24.26
2023-04-26T14:00:19.120Z,24.23
2023-04-26T14:02:47.201Z,24.22
2023-04-26T14:05:14.133Z,24.23
2023-04-26T14:07:41.426Z,24.23
2023-04-26T14:10:08.762Z,24.23
2023-04-26T14:12:35.464Z,24.22
2023-04-26T14:15:04.340Z,24.22
2023-04-26T14:17:32.383Z,24.17
2023-04-26T14:19:59.069Z,24.22
2023-04-26T14:22:27.005Z,24.23
2023-04-26T14:24:53.632Z,24.22
2023-04-26T14:27:20.301Z,24.23
2023-04-26T14:29:46.899Z,24.21
2023-04-26T14:32:13.509Z,24.22
2023-04-26T14:34:40.461Z,24.22
2023-04-26T14:37:07.056Z,24.21
2023-04-26T14:39:33.771Z,24.16
2023-04-26T14:42:00.539Z,24.21
2023-04-26T14:44:27.535Z,24.19
2023-04-26T14:46:54.095Z,24.18
2023-04-26T14:49:21.062Z,24.16
2023-04-26T14:51:47.648Z,24.15
2023-04-26T14:54:15.429Z,24.14
2023-04-26T14:56:42.199Z,24.13
2023-04-26T14:59:08.912Z,24.15
2023-04-26T15:01:35.533Z,24.16
2023-04-26T15:04:02.258Z,24.16
2023-04-26T15:06:30.803Z,24.15
2023-04-26T15:08:57.541Z,24.13
2023-04-26T15:11:24.560Z,24.05
2023-04-26T15:13:51.255Z,24.00
2023-04-26T15:16:18.008Z,23.99
2023-04-26T15:18:44.583Z,24.00
2023-04-26T15:21:16.701Z,24.01
2023-04-26T15:23:43.452Z,24.03
2023-04-26T15:26:10.022Z,24.01
2023-04-26T15:28:37.046Z,24.02
2023-04-26T15:31:04.868Z,24.01
2023-04-26T15:33:31.690Z,24.01
2023-04-26T15:35:58.392Z,24.02
2023-04-26T15:38:25.067Z,24.03
2023-04-26T15:40:51.829Z,24.04
2023-04-26T15:43:18.716Z,24.04
2023-04-26T15:45:45.964Z,24.05
2023-04-26T15:48:12.701Z,24.06
2023-04-26T15:50:39.267Z,24.07
2023-04-26T15:53:06.039Z,24.08
2023-04-26T15:55:32.810Z,23.99
2023-04-26T15:57:59.756Z,24.09
2023-04-26T16:00:29.345Z,24.09
2023-04-26T16:02:56.682Z,24.09
2023-04-26T16:05:23.356Z,24.11
2023-04-26T16:07:50.069Z,24.10
2023-04-26T16:10:17.057Z,24.09
2023-04-26T16:12:44.828Z,24.10
2023-04-26T16:15:11.555Z,24.09
2023-04-26T16:17:38.754Z,24.08
2023-04-26T16:20:06.790Z,24.08
2023-04-26T16:22:34.137Z,24.08
2023-04-26T16:25:01.204Z,24.08
2023-04-26T16:27:27.798Z,24.08
2023-04-26T16:29:54.576Z,24.08
2023-04-26T16:32:21.941Z,24.08
2023-04-26T16:34:48.530Z,24.07
2023-04-26T16:37:15.152Z,24.08
2023-04-26T16:39:41.691Z,24.07
2023-04-26T16:42:08.340Z,23.98
2023-04-26T16:44:34.910Z,24.05
2023-04-26T16:47:01.778Z,24.09
2023-04-26T16:49:28.447Z,24.07
2023-04-26T16:51:58.784Z,24.15
2023-04-26T16:54:26.254Z,24.19
2023-04-26T16:56:53.071Z,24.21
2023-04-26T16:59:19.755Z,24.18
2023-04-26T17:01:47.276Z,24.24
2023-04-26T17:04:14.303Z,24.27
2023-04-26T17:06:41.195Z,24.26
2023-04-26T17:09:08.681Z,24.28
2023-04-26T17:11:37.261Z,24.27
2023-04-26T17:14:04.305Z,24.28
2023-04-26T17:16:31.148Z,24.30
2023-04-26T17:18:58.465Z,24.30
2023-04-26T17:21:25.462Z,24.27
2023-04-26T17:23:52.439Z,24.30
2023-04-26T17:26:19.148Z,24.30
2023-04-26T17:28:45.798Z,24.30
2023-04-26T17:31:12.403Z,24.31
2023-04-26T17:33:39.030Z,24.31
2023-04-26T17:36:06.151Z,24.32
2023-04-26T17:38:32.829Z,24.33
2023-04-26T17:40:59.623Z,24.33
2023-04-26T17:43:26.186Z,24.29
2023-04-26T17:45:52.944Z,24.33
2023-04-26T17:48:19.644Z,24.28
2023-04-26T17:50:46.364Z,24.32
2023-04-26T17:53:13.011Z,24.31
2023-04-26T17:55:40.018Z,24.31
2023-04-26T17:58:06.604Z,24.31
2023-04-26T18:00:33.334Z,24.31
2023-04-26T18:03:03.012Z,24.30
2023-04-26T18:05:29.845Z,24.29
2023-04-26T18:07:56.541Z,24.30
2023-04-26T18:10:23.393Z,24.27
2023-04-26T18:12:50.053Z,24.28
2023-04-26T18:15:16.651Z,24.28
2023-04-26T18:17:43.692Z,24.27
2023-04-26T18:20:12.969Z,24.27
2023-04-26T18:22:39.978Z,24.26
2023-04-26T18:25:07.172Z,24.26
2023-04-26T18:27:33.835Z,24.26
2023-04-26T18:30:00.666Z,24.26
2023-04-26T18:32:27.295Z,24.26
2023-04-26T18:34:53.900Z,24.25
2023-04-26T18:37:20.486Z,24.25
2023-04-26T18:39:48.478Z,24.24
2023-04-26T18:42:15.173Z,24.19
2023-04-26T18:44:41.991Z,24.23
2023-04-26T18:47:08.622Z,24.23
2023-04-26T18:49:35.268Z,24.23
2023-04-26T18:52:02.023Z,24.22
2023-04-26T18:54:30.916Z,24.23
2023-04-26T18:56:57.503Z,24.21
2023-04-26T18:59:24.154Z,24.22
2023-04-26T19:01:50.873Z,24.20
2023-04-26T19:04:17.701Z,24.21
2023-04-26T19:06:44.321Z,24.21
2023-04-26T19:09:11.817Z,24.20
2023-04-26T19:11:38.664Z,24.21
2023-04-26T19:14:05.307Z,24.20
2023-04-26T19:16:32.211Z,24.19
2023-04-26T19:18:58.942Z,24.19
2023-04-26T19:21:25.608Z,24.19
2023-04-26T19:23:52.241Z,24.19
2023-04-26T19:26:18.768Z,24.19
2023-04-26T19:28:45.458Z,24.19
2023-04-26T19:31:12.189Z,24.19
2023-04-26T19:33:40.398Z,24.18
2023-04-26T19:36:07.098Z,24.18
2023-04-26T19:38:33.675Z,24.18
2023-04-26T19:41:01.155Z,24.14
2023-04-26T19:43:27.720Z,24.18
2023-04-26T19:45:54.350Z,24.16
2023-04-26T19:48:21.461Z,24.17
2023-04-26T19:50:48.037Z,24.17
2023-04-26T19:53:15.177Z,24.16
2023-04-26T19:55:42.315Z,24.15
2023-04-26T19:58:10.353Z,24.12
2023-04-26T20:00:37.854Z,24.15
2023-04-26T20:03:05.226Z,24.14
2023-04-26T20:05:32.066Z,24.14
2023-04-26T20:07:58.625Z,24.14
2023-04-26T20:10:25.409Z,24.13
2023-04-26T20:12:53.016Z,24.13
2023-04-26T20:15:19.713Z,24.12
2023-04-26T20:17:46.411Z,24.13
2023-04-26T20:20:13.157Z,24.06
2023-04-26T20:22:40.315Z,24.11
2023-04-26T20:25:07.677Z,24.11
2023-04-26T20:27:34.317Z,24.10
2023-04-26T20:30:01.039Z,24.12
2023-04-26T20:32:27.825Z,24.04
2023-04-26T20:34:54.439Z,24.10
2023-04-26T20:37:21.919Z,24.09
2023-04-26T20:39:48.936Z,24.09
2023-04-26T20:42:15.954Z,24.08
2023-04-26T20:44:42.717Z,24.08
2023-04-26T20:47:09.317Z,24.07
2023-04-26T20:49:35.954Z,24.07
2023-04-26T20:52:02.750Z,24.06
2023-04-26T20:54:29.353Z,24.08
2023-04-26T20:56:56.017Z,24.07
2023-04-26T20:59:25.049Z,24.02
2023-04-26T21:01:53.141Z,24.06
2023-04-26T21:04:20.080Z,24.05
2023-04-26T21:06:46.811Z,24.03
2023-04-26T21:09:13.429Z,24.04
2023-04-26T21:11:40.039Z,24.04
2023-04-26T21:14:07.115Z,24.03
2023-04-26T21:16:36.684Z,24.04
2023-04-26T21:19:03.600Z,24.04
2023-04-26T21:21:30.812Z,24.04
2023-04-26T21:23:57.396Z,24.03
2023-04-26T21:26:24.087Z,24.04
2023-04-26T21:28:50.901Z,24.04
2023-04-26T21:31:17.918Z,24.03
2023-04-26T21:33:44.486Z,24.05
2023-04-26T21:36:11.333Z,23.99
2023-04-26T21:38:37.964Z,24.03
2023-04-26T21:41:04.668Z,24.04
2023-04-26T21:43:31.353Z,24.04
2023-04-26T21:45:58.489Z,24.03
2023-04-26T21:48:26.216Z,24.01
2023-04-26T21:50:53.131Z,24.02
2023-04-26T21:53:19.744Z,24.01
2023-04-26T21:55:53.302Z,24.02
2023-04-26T21:58:21.000Z,24.02
2023-04-26T22:00:47.704Z,24.01
2023-04-26T22:03:15.052Z,24.02
2023-04-26T22:05:42.014Z,23.99
2023-04-26T22:08:08.760Z,24.01
2023-04-26T22:10:36.277Z,24.00
2023-04-26T22:13:03.189Z,23.99
2023-04-26T22:15:29.911Z,24.00
2023-04-26T22:17:56.616Z,24.00
2023-04-26T22:20:23.305Z,23.99
2023-04-26T22:22:50.000Z,23.99
2023-04-26T22:25:16.583Z,23.98
2023-04-26T22:27:43.416Z,23.98
2023-04-26T22:30:23.682Z,23.98
2023-04-26T22:32:54.462Z,23.98
2023-04-26T22:35:22.282Z,23.97
2023-04-26T22:37:49.053Z,23.97
2023-04-26T22:40:16.213Z,23.96
2023-04-26T22:42:43.504Z,23.95
2023-04-26T22:45:11.164Z,23.94
2023-04-26T22:47:38.388Z,23.90
2023-04-26T22:50:05.971Z,23.93
2023-04-26T22:52:33.011Z,23.93
2023-04-26T22:55:02.465Z,23.91
2023-04-26T22:57:29.876Z,23.91
2023-04-26T22:59:56.742Z,23.90
2023-04-26T23:02:23.813Z,23.90
2023-04-26T23:04:50.610Z,23.89
2023-04-26T23:07:17.354Z,23.89
2023-04-26T23:09:43.934Z,23.88
2023-04-26T23:12:10.672Z,23.87
2023-04-26T23:14:37.688Z,23.86
2023-04-26T23:17:05.344Z,23.86
2023-04-26T23:19:32.997Z,23.87
2023-04-26T23:21:59.851Z,23.85
2023-04-26T23:24:26.885Z,23.84
2023-04-26T23:26:53.608Z,23.82
2023-04-26T23:29:20.160Z,23.83
2023-04-26T23:31:46.888Z,23.80
2023-04-26T23:34:13.441Z,23.82
2023-04-26T23:36:40.043Z,23.82
2023-04-26T23:39:07.157Z,23.78
2023-04-26T23:41:33.827Z,23.80
2023-04-26T23:44:00.433Z,23.80
2023-04-26T23:46:27.121Z,23.79
2023-04-26T23:48:53.740Z,23.80
2023-04-26T23:51:20.328Z,23.79
2023-04-26T23:53:47.095Z,23.78
2023-04-26T23:56:13.790Z,23.76
2023-04-26T23:58:40.453Z,23.76
